Time;durP1;ratioP1;P1;durP2;ratioP2;P2;SDS_P1;SDS_P2;PMS_P1;PMS_P2;Temp;Humidity;BMP_temperature;BMP_pressure;BME280_temperature;BME280_humidity;BME280_pressure;Samples;Min_cycle;Max_cycle;Signal;HPM_P1;HPM_P2
2021/05/14 00:00:50;;;;;;;5.40;4.90;;;11.90;99.90;;;;;;4993198;28;20186;-94
2021/05/14 00:03:16;;;;;;;5.95;5.18;;;11.90;99.90;;;;;;4994317;28;20208;-91
2021/05/14 00:05:42;;;;;;;7.88;5.68;;;11.90;99.90;;;;;;4993075;28;20624;-93
2021/05/14 00:08:08;;;;;;;9.40;5.63;;;11.90;99.90;;;;;;4993096;28;20164;-93
2021/05/14 00:10:38;;;;;;;6.20;5.60;;;11.80;99.90;;;;;;4995060;28;20176;-93
2021/05/14 00:13:08;;;;;;;10.00;5.65;;;11.80;99.90;;;;;;4997229;28;20655;-90
2021/05/14 00:15:34;;;;;;;7.97;5.75;;;11.80;99.90;;;;;;4997194;28;20176;-94
2021/05/14 00:17:59;;;;;;;6.05;5.55;;;11.80;99.90;;;;;;4997206;28;20176;-92
2021/05/14 00:20:27;;;;;;;7.03;5.50;;;11.80;99.90;;;;;;5000273;28;20217;-90
2021/05/14 00:22:53;;;;;;;6.20;5.22;;;11.80;99.90;;;;;;5016240;28;20694;-92
2021/05/14 00:25:19;;;;;;;8.93;5.20;;;11.80;99.90;;;;;;5016515;28;20164;-93
2021/05/14 00:27:44;;;;;;;6.63;5.25;;;11.80;99.90;;;;;;5016566;28;20635;-91
2021/05/14 00:30:11;;;;;;;9.25;5.85;;;11.80;99.90;;;;;;5016310;28;20219;-93
2021/05/14 00:32:37;;;;;;;10.05;5.60;;;11.80;99.90;;;;;;5016328;28;20502;-93
2021/05/14 00:35:04;;;;;;;6.47;5.85;;;11.80;99.90;;;;;;5016566;28;20562;-95
2021/05/14 00:37:30;;;;;;;9.43;5.80;;;11.70;99.90;;;;;;5016296;28;20179;-93
2021/05/14 00:39:56;;;;;;;6.88;5.93;;;11.70;99.90;;;;;;5016527;28;20172;-93
2021/05/14 00:42:25;;;;;;;9.88;5.47;;;11.60;99.90;;;;;;5016258;28;20618;-91
2021/05/14 00:44:50;;;;;;;8.23;5.88;;;11.60;99.90;;;;;;5016087;28;20213;-92
2021/05/14 00:47:18;;;;;;;8.02;5.22;;;11.60;99.90;;;;;;5016057;28;20167;-93
2021/05/14 00:49:45;;;;;;;7.55;5.47;;;11.60;99.90;;;;;;5016299;28;20167;-91
2021/05/14 00:52:15;;;;;;;8.93;6.05;;;11.60;99.90;;;;;;5016294;28;20223;-91
2021/05/14 00:54:43;;;;;;;7.47;5.82;;;11.60;99.90;;;;;;5016421;28;20226;-91
2021/05/14 00:57:09;;;;;;;7.55;5.63;;;11.60;99.90;;;;;;5016230;28;20190;-91
2021/05/14 00:59:36;;;;;;;8.07;5.97;;;11.60;99.90;;;;;;5015978;28;20182;-94
2021/05/14 01:02:02;;;;;;;9.82;5.80;;;11.60;99.90;;;;;;5015821;28;20203;-92
2021/05/14 01:04:28;;;;;;;6.45;5.45;;;11.60;99.90;;;;;;5016915;28;20648;-91
2021/05/14 01:06:54;;;;;;;7.38;5.72;;;11.60;99.90;;;;;;5015758;28;20182;-92
2021/05/14 01:09:21;;;;;;;5.97;5.38;;;11.60;99.90;;;;;;5015878;28;20163;-91
2021/05/14 01:11:46;;;;;;;5.90;5.30;;;11.60;99.90;;;;;;5015945;28;20163;-92
2021/05/14 01:14:12;;;;;;;6.90;5.78;;;11.60;99.90;;;;;;5015654;28;20167;-92
2021/05/14 01:16:39;;;;;;;5.95;5.35;;;11.60;99.90;;;;;;5015159;28;20548;-90
2021/05/14 01:19:13;;;;;;;6.60;5.18;;;11.50;99.90;;;;;;5017407;28;20186;-91
2021/05/14 01:21:41;;;;;;;6.00;5.40;;;11.50;99.90;;;;;;5014294;28;20561;-90
2021/05/14 01:24:16;;;;;;;6.95;5.45;;;11.50;99.90;;;;;;5015755;28;20191;-93
2021/05/14 01:26:48;;;;;;;7.25;5.40;;;11.50;99.90;;;;;;5015658;28;20271;-93
2021/05/14 01:29:14;;;;;;;6.13;5.40;;;11.50;99.90;;;;;;5011235;28;20253;-91
2021/05/14 01:31:41;;;;;;;7.30;5.60;;;11.50;99.90;;;;;;5015586;28;20206;-94
2021/05/14 01:34:53;;;;;;;7.45;5.85;;;11.50;99.90;;;;;;5015620;28;20636;-94
2021/05/14 01:37:31;;;;;;;6.47;5.53;;;11.50;99.90;;;;;;5015376;28;20179;-91
2021/05/14 01:39:58;;;;;;;5.70;4.85;;;11.50;99.90;;;;;;5015477;28;20209;-91
2021/05/14 01:42:27;;;;;;;7.80;5.57;;;11.50;99.90;;;;;;5015510;28;20206;-92
2021/05/14 01:45:06;;;;;;;8.60;5.80;;;11.50;99.90;;;;;;5015497;28;20207;-92
2021/05/14 01:47:32;;;;;;;6.90;5.37;;;11.50;99.90;;;;;;5317098;23;20189;-92
2021/05/14 01:49:58;;;;;;;8.57;5.60;;;11.50;99.90;;;;;;4994179;28;20204;-92
2021/05/14 01:52:23;;;;;;;8.55;6.15;;;11.50;99.90;;;;;;4995393;28;20207;-91
2021/05/14 01:54:49;;;;;;;6.70;5.97;;;11.50;99.90;;;;;;4995727;28;20176;-92
2021/05/14 01:57:15;;;;;;;7.60;6.00;;;11.50;99.90;;;;;;4995399;28;20206;-92
2021/05/14 01:59:40;;;;;;;8.80;6.18;;;11.50;99.90;;;;;;4995282;28;20184;-94
2021/05/14 02:02:06;;;;;;;6.57;5.80;;;11.40;99.90;;;;;;4995036;28;20250;-93
2021/05/14 02:04:32;;;;;;;9.32;5.75;;;11.40;99.90;;;;;;4996166;28;20203;-94
2021/05/14 02:06:58;;;;;;;8.85;5.97;;;11.40;99.90;;;;;;4995016;28;20172;-93
2021/05/14 02:09:23;;;;;;;8.63;5.70;;;11.40;99.90;;;;;;4995273;28;20168;-91
2021/05/14 02:11:49;;;;;;;8.23;6.00;;;11.50;99.90;;;;;;4996085;28;20208;-90
2021/05/14 02:14:15;;;;;;;7.60;6.13;;;11.50;99.90;;;;;;4994889;28;20649;-92
2021/05/14 02:16:44;;;;;;;7.07;6.33;;;11.50;99.90;;;;;;4994691;28;20184;-92
2021/05/14 02:19:13;;;;;;;8.70;6.40;;;11.50;99.90;;;;;;4995060;28;20195;-93
2021/05/14 02:21:39;;;;;;;11.05;6.43;;;11.50;99.90;;;;;;4996076;28;20247;-90
2021/05/14 02:24:09;;;;;;;8.93;6.63;;;11.50;99.90;;;;;;4995068;28;20290;-94
2021/05/14 02:26:39;;;;;;;7.88;6.15;;;11.40;99.90;;;;;;4995051;28;20187;-92
2021/05/14 02:29:12;;;;;;;9.23;6.78;;;11.40;99.90;;;;;;4995328;28;20212;-95
2021/05/14 02:31:39;;;;;;;9.52;6.70;;;11.40;99.90;;;;;;4995002;28;20176;-93
2021/05/14 02:34:15;;;;;;;8.73;6.55;;;11.30;99.90;;;;;;4994895;28;20254;-91
2021/05/14 02:36:51;;;;;;;9.03;6.20;;;11.30;99.90;;;;;;4996056;28;20168;-91
2021/05/14 02:39:17;;;;;;;7.10;5.97;;;11.30;99.90;;;;;;4995064;28;20611;-95
2021/05/14 02:42:02;;;;;;;8.43;6.22;;;11.30;99.90;;;;;;4994893;28;20218;-94
2021/05/14 02:44:32;;;;;;;7.32;6.18;;;11.30;99.90;;;;;;4994775;28;20207;-94
2021/05/14 02:46:57;;;;;;;8.60;6.82;;;11.30;99.90;;;;;;4994734;28;20222;-95
2021/05/14 02:49:27;;;;;;;9.77;6.63;;;11.40;99.90;;;;;;4994547;28;20219;-91
2021/05/14 02:51:55;;;;;;;12.18;7.57;;;11.40;99.90;;;;;;4994677;28;20231;-92
2021/05/14 02:54:22;;;;;;;8.60;7.43;;;11.30;99.90;;;;;;4994222;28;20234;-93
2021/05/14 02:57:13;;;;;;;10.30;7.13;;;11.30;99.90;;;;;;4994620;28;20678;-91
2021/05/14 02:59:50;;;;;;;9.73;7.00;;;11.30;99.90;;;;;;4995611;28;20255;-91
2021/05/14 03:02:17;;;;;;;8.57;7.30;;;11.30;99.90;;;;;;4994150;28;20562;-93
2021/05/14 03:05:14;;;;;;;8.15;6.97;;;11.30;99.90;;;;;;4995253;28;20660;-92
2021/05/14 03:08:05;;;;;;;10.68;7.25;;;11.30;99.90;;;;;;4994799;28;20218;-95
2021/05/14 03:10:45;;;;;;;11.67;8.07;;;11.30;99.90;;;;;;4994964;28;20172;-91
2021/05/14 03:13:12;;;;;;;10.63;8.50;;;11.30;99.90;;;;;;4996093;28;20293;-92
2021/05/14 03:15:40;;;;;;;8.68;7.45;;;11.30;99.90;;;;;;4997245;28;20175;-91
2021/05/14 03:18:07;;;;;;;10.98;7.95;;;11.30;99.90;;;;;;4995488;28;20183;-91
2021/05/14 03:20:38;;;;;;;11.93;8.50;;;11.20;99.90;;;;;;4995641;28;20824;-91
2021/05/14 03:23:34;;;;;;;8.93;7.65;;;11.20;99.90;;;;;;4994275;28;20203;-93
2021/05/14 03:26:16;;;;;;;12.30;7.88;;;11.20;99.90;;;;;;4995022;28;20165;-93
2021/05/14 03:28:44;;;;;;;9.90;7.97;;;11.20;99.90;;;;;;4994364;28;20739;-92
2021/05/14 03:31:22;;;;;;;10.13;7.68;;;11.10;99.90;;;;;;4994670;28;20214;-91
2021/05/14 03:33:48;;;;;;;9.57;8.52;;;11.10;99.90;;;;;;4994439;28;20234;-91
2021/05/14 03:36:23;;;;;;;9.65;8.45;;;11.10;99.90;;;;;;4995899;28;20180;-90
2021/05/14 03:38:57;;;;;;;9.60;8.18;;;11.10;99.90;;;;;;4995515;28;20258;-91
2021/05/14 03:41:33;;;;;;;8.93;7.90;;;11.10;99.90;;;;;;4994663;28;20175;-90
2021/05/14 03:44:13;;;;;;;10.75;7.63;;;11.10;99.90;;;;;;4994360;28;20233;-91
2021/05/14 03:46:41;;;;;;;10.50;8.68;;;11.10;99.90;;;;;;4993363;28;20183;-92
2021/05/14 03:49:28;;;;;;;10.30;8.02;;;11.10;99.90;;;;;;4994338;28;20228;-91
2021/05/14 03:51:54;;;;;;;13.20;8.52;;;11.10;99.90;;;;;;4994205;28;20207;-91
2021/05/14 03:54:29;;;;;;;11.10;8.07;;;11.10;99.90;;;;;;4994886;28;20585;-95
2021/05/14 03:56:57;;;;;;;11.48;8.35;;;11.00;99.90;;;;;;4994268;28;20179;-91
2021/05/14 03:59:26;;;;;;;9.32;8.30;;;11.00;99.90;;;;;;4993870;28;20176;-92
2021/05/14 04:02:07;;;;;;;10.43;8.07;;;11.00;99.90;;;;;;4993847;28;20741;-93
2021/05/14 04:07:56;;;;;;;10.15;7.63;;;11.10;99.90;;;;;;4995193;28;20170;-92
2021/05/14 04:11:04;;;;;;;9.27;7.50;;;11.10;99.90;;;;;;4993883;28;20176;-91
2021/05/14 04:16:29;;;;;;;8.73;7.35;;;11.20;99.90;;;;;;4996721;28;20279;-92
2021/05/14 04:18:57;;;;;;;10.03;8.07;;;11.20;99.90;;;;;;4995331;28;20179;-92
2021/05/14 04:21:27;;;;;;;10.77;8.07;;;11.10;99.90;;;;;;4995452;28;20262;-92
2021/05/14 04:23:55;;;;;;;12.75;7.63;;;11.10;99.90;;;;;;4996673;28;20676;-91
2021/05/14 04:26:21;;;;;;;12.13;8.00;;;11.10;99.90;;;;;;4996112;28;20647;-91
2021/05/14 04:28:50;;;;;;;11.53;8.27;;;11.10;99.90;;;;;;4995373;28;20176;-94
2021/05/14 04:31:22;;;;;;;12.07;8.30;;;11.10;99.90;;;;;;4996379;28;20168;-91
2021/05/14 04:34:02;;;;;;;11.13;8.23;;;11.10;99.90;;;;;;4995331;28;20574;-92
2021/05/14 04:36:32;;;;;;;11.38;8.52;;;11.10;99.90;;;;;;4995997;28;20250;-93
2021/05/14 04:38:59;;;;;;;9.90;8.27;;;11.10;99.90;;;;;;4995003;28;20632;-92
2021/05/14 04:41:34;;;;;;;9.87;8.73;;;11.10;99.90;;;;;;4994008;28;20579;-94
2021/05/14 04:44:06;;;;;;;10.07;7.83;;;11.10;99.90;;;;;;4993996;28;20203;-95
2021/05/14 04:46:35;;;;;;;10.77;8.03;;;11.10;99.90;;;;;;4995515;28;20175;-91
2021/05/14 04:49:02;;;;;;;11.88;8.75;;;11.10;99.90;;;;;;4993786;28;20230;-95
2021/05/14 04:51:30;;;;;;;10.88;8.63;;;11.10;99.90;;;;;;4998867;28;20219;-93
2021/05/14 04:54:01;;;;;;;9.57;8.00;;;11.10;99.90;;;;;;4998683;28;20195;-92
2021/05/14 04:56:28;;;;;;;12.77;8.43;;;11.10;99.90;;;;;;4999392;28;20251;-92
2021/05/14 04:58:56;;;;;;;9.93;8.43;;;11.00;99.90;;;;;;5001556;28;20175;-92
2021/05/14 05:01:27;;;;;;;12.98;8.63;;;11.10;99.90;;;;;;5000824;28;20164;-94
2021/05/14 05:04:00;;;;;;;11.63;9.40;;;11.10;99.90;;;;;;4999843;28;20211;-96
2021/05/14 05:06:41;;;;;;;13.70;9.70;;;11.10;99.90;;;;;;5001197;28;20180;-93
2021/05/14 05:09:16;;;;;;;12.53;9.40;;;11.10;99.90;;;;;;5001052;28;20251;-95
2021/05/14 05:11:47;;;;;;;12.05;9.10;;;11.10;99.90;;;;;;5002256;28;20203;-92
2021/05/14 05:14:13;;;;;;;15.00;9.27;;;11.10;99.90;;;;;;5000839;28;20211;-94
2021/05/14 05:16:44;;;;;;;13.43;9.67;;;11.00;99.90;;;;;;5001403;28;20576;-93
2021/05/14 05:19:11;;;;;;;11.68;9.38;;;11.10;99.90;;;;;;5000581;28;20200;-91
2021/05/14 05:21:46;;;;;;;12.60;10.05;;;11.10;99.90;;;;;;4999721;28;20226;-93
2021/05/14 05:24:21;;;;;;;13.03;9.97;;;11.10;99.90;;;;;;5000972;28;20746;-95
2021/05/14 05:26:49;;;;;;;11.82;10.50;;;11.10;99.90;;;;;;5000597;28;20167;-93
2021/05/14 05:29:27;;;;;;;14.35;10.52;;;11.10;99.90;;;;;;5000412;28;20164;-93
2021/05/14 05:32:06;;;;;;;14.27;10.88;;;11.10;99.90;;;;;;4999794;28;20194;-91
2021/05/14 05:34:59;;;;;;;12.90;10.30;;;11.10;99.90;;;;;;4997274;28;20175;-92
2021/05/14 05:37:25;;;;;;;13.80;11.15;;;11.10;99.90;;;;;;4980565;28;20173;-92
2021/05/14 05:39:55;;;;;;;14.05;11.73;;;11.20;99.90;;;;;;4980781;28;20191;-95
2021/05/14 05:42:38;;;;;;;12.73;11.10;;;11.10;99.90;;;;;;4980799;28;20208;-92
2021/05/14 05:45:38;;;;;;;14.82;10.90;;;11.10;99.90;;;;;;4981402;28;20189;-91
2021/05/14 05:48:04;;;;;;;13.82;11.25;;;11.20;99.90;;;;;;4978639;28;20606;-91
2021/05/14 05:50:35;;;;;;;13.57;11.02;;;11.10;99.90;;;;;;4980379;28;20256;-93
2021/05/14 05:53:04;;;;;;;13.63;11.23;;;11.00;99.90;;;;;;4981018;28;20212;-92
2021/05/14 05:55:42;;;;;;;16.83;11.07;;;11.00;99.90;;;;;;4979619;28;20203;-93
2021/05/14 05:58:11;;;;;;;15.00;11.87;;;11.10;99.90;;;;;;4979132;28;20196;-91
2021/05/14 06:01:06;;;;;;;16.15;11.02;;;11.00;99.90;;;;;;4980226;28;20161;-94
2021/05/14 06:03:37;;;;;;;15.52;13.20;;;11.00;99.90;;;;;;4980846;28;20580;-93
2021/05/14 06:06:14;;;;;;;14.38;11.57;;;11.00;99.90;;;;;;4999863;28;20187;-93
2021/05/14 06:08:50;;;;;;;14.23;12.60;;;11.00;99.90;;;;;;5000369;28;20178;-92
2021/05/14 06:11:23;;;;;;;20.73;14.93;;;11.10;99.90;;;;;;5000940;28;20186;-94
2021/05/14 06:14:02;;;;;;;23.00;15.93;;;11.10;99.90;;;;;;5000400;28;20766;-91
2021/05/14 06:16:29;;;;;;;22.20;15.68;;;11.10;99.90;;;;;;5001818;28;20172;-93
2021/05/14 06:19:25;;;;;;;18.57;13.67;;;11.00;99.90;;;;;;5000538;28;20234;-94
2021/05/14 06:21:53;;;;;;;15.20;13.00;;;11.10;99.90;;;;;;4982379;28;20177;-96
2021/05/14 06:24:21;;;;;;;15.63;13.17;;;11.10;99.90;;;;;;4981511;28;20244;-94
2021/05/14 06:26:47;;;;;;;16.50;12.93;;;11.10;99.90;;;;;;4981117;28;20199;-92
2021/05/14 06:29:22;;;;;;;18.53;13.43;;;11.20;99.90;;;;;;4981916;28;20173;-94
2021/05/14 06:31:54;;;;;;;17.90;13.47;;;11.20;99.90;;;;;;4981975;28;20184;-92
2021/05/14 06:34:20;;;;;;;17.10;13.57;;;11.30;99.90;;;;;;4980929;28;20525;-94
2021/05/14 06:36:46;;;;;;;19.10;13.32;;;11.30;99.90;;;;;;4980938;28;20191;-93
2021/05/14 06:39:11;;;;;;;16.42;12.70;;;11.40;99.90;;;;;;4990692;28;20180;-94
2021/05/14 06:41:37;;;;;;;15.68;12.57;;;11.40;99.90;;;;;;4983072;28;20184;-93
2021/05/14 06:44:03;;;;;;;17.03;13.33;;;11.50;99.90;;;;;;4984164;28;20205;-93
2021/05/14 06:46:29;;;;;;;16.58;12.07;;;11.60;99.90;;;;;;4987639;28;20187;-92
2021/05/14 06:48:55;;;;;;;18.00;12.52;;;11.60;99.90;;;;;;4999583;28;20239;-94
2021/05/14 06:51:20;;;;;;;16.63;12.18;;;11.70;99.90;;;;;;4998348;28;20617;-93
2021/05/14 06:53:47;;;;;;;15.32;10.77;;;11.80;99.90;;;;;;4998276;28;20273;-93
2021/05/14 06:56:14;;;;;;;14.68;11.52;;;11.90;99.90;;;;;;4999594;28;20184;-92
2021/05/14 06:58:47;;;;;;;14.05;10.85;;;11.90;99.90;;;;;;5000878;28;20243;-94
2021/05/14 07:01:15;;;;;;;13.43;11.00;;;11.90;99.90;;;;;;5000381;28;20187;-91
2021/05/14 07:03:41;;;;;;;12.95;10.10;;;11.90;99.90;;;;;;5006068;28;20208;-92
2021/05/14 07:06:11;;;;;;;13.05;10.68;;;11.90;99.90;;;;;;5006128;28;20180;-92
2021/05/14 07:08:41;;;;;;;15.68;10.82;;;11.90;99.90;;;;;;5003772;28;20164;-91
2021/05/14 07:11:10;;;;;;;13.95;11.57;;;12.00;99.90;;;;;;5005380;28;20172;-92
2021/05/14 07:13:41;;;;;;;15.15;11.65;;;11.90;99.90;;;;;;5006150;28;20204;-92
2021/05/14 07:16:09;;;;;;;15.75;11.57;;;11.90;99.90;;;;;;5006792;28;20199;-92
2021/05/14 07:18:35;;;;;;;16.95;14.10;;;12.00;99.90;;;;;;5006061;28;20479;-91
2021/05/14 07:21:03;;;;;;;17.20;14.25;;;12.00;99.90;;;;;;5004328;28;20581;-91
2021/05/14 07:23:32;;;;;;;21.77;15.23;;;12.00;99.90;;;;;;5005147;28;20199;-92
2021/05/14 07:25:59;;;;;;;18.30;14.15;;;12.10;99.90;;;;;;5005687;28;20268;-92
2021/05/14 07:28:25;;;;;;;21.48;14.43;;;12.10;99.90;;;;;;5004286;28;20179;-93
2021/05/14 07:30:52;;;;;;;18.10;14.30;;;12.20;99.90;;;;;;5005842;28;20215;-92
2021/05/14 07:33:19;;;;;;;19.55;15.50;;;12.20;99.90;;;;;;5006009;28;20200;-91
2021/05/14 07:35:46;;;;;;;20.48;15.20;;;12.20;99.90;;;;;;5005409;28;20200;-92
2021/05/14 07:38:14;;;;;;;20.60;15.07;;;12.20;99.90;;;;;;5005256;28;20235;-91
2021/05/14 07:40:40;;;;;;;21.02;15.63;;;12.20;99.90;;;;;;5005415;28;20176;-92
2021/05/14 07:43:07;;;;;;;21.35;15.70;;;12.20;99.90;;;;;;4999266;28;20198;-93
2021/05/14 07:45:37;;;;;;;18.95;13.55;;;12.20;99.90;;;;;;5001418;28;20298;-96
2021/05/14 07:48:20;;;;;;;17.65;14.35;;;12.30;99.90;;;;;;5002776;28;20171;-93
2021/05/14 07:50:49;;;;;;;16.90;13.15;;;12.30;99.90;;;;;;5001877;28;20636;-92
2021/05/14 07:53:17;;;;;;;15.25;13.52;;;12.40;99.90;;;;;;5002227;28;20192;-94
2021/05/14 07:55:43;;;;;;;16.65;12.65;;;12.40;99.90;;;;;;5001679;28;20194;-95
2021/05/14 07:58:10;;;;;;;15.98;12.32;;;12.40;99.90;;;;;;5000121;28;20235;-92
2021/05/14 08:00:40;;;;;;;18.13;12.55;;;12.40;99.90;;;;;;5003690;28;20187;-92
2021/05/14 08:03:07;;;;;;;16.17;11.80;;;12.40;99.90;;;;;;4993914;28;20197;-92
2021/05/14 08:05:33;;;;;;;14.48;11.18;;;12.50;99.90;;;;;;4982939;28;20231;-94
2021/05/14 08:08:12;;;;;;;17.27;11.50;;;12.50;99.90;;;;;;4982075;28;20177;-91
2021/05/14 08:10:38;;;;;;;15.75;10.48;;;12.50;99.90;;;;;;4981528;28;20203;-93
2021/05/14 08:13:07;;;;;;;15.10;10.73;;;12.40;99.90;;;;;;4975929;28;20197;-94
2021/05/14 08:15:33;;;;;;;18.05;11.20;;;12.40;99.90;;;;;;4961310;28;20173;-95
2021/05/14 08:18:00;;;;;;;16.63;10.95;;;12.40;99.90;;;;;;4959893;28;20188;-94
2021/05/14 08:20:28;;;;;;;12.13;10.10;;;12.40;99.90;;;;;;4960628;28;20267;-93
2021/05/14 08:22:55;;;;;;;19.08;11.80;;;12.40;99.90;;;;;;4966293;28;20225;-91
2021/05/14 08:25:24;;;;;;;16.08;10.90;;;12.50;99.90;;;;;;4977840;28;20192;-94
2021/05/14 08:27:54;;;;;;;15.32;11.82;;;12.50;99.90;;;;;;4965292;28;20180;-92
2021/05/14 08:30:20;;;;;;;15.68;12.60;;;12.50;99.90;;;;;;4980289;28;20175;-93
2021/05/14 08:32:48;;;;;;;14.90;12.55;;;12.50;99.90;;;;;;4983411;28;20188;-92
2021/05/14 08:35:14;;;;;;;16.00;12.90;;;12.60;99.90;;;;;;4984645;28;20584;-94
2021/05/14 08:37:46;;;;;;;15.95;12.30;;;12.60;99.90;;;;;;4967105;28;20173;-94
2021/05/14 08:40:18;;;;;;;16.88;13.73;;;12.60;99.90;;;;;;4965595;29;20248;-92
2021/05/14 08:42:44;;;;;;;15.50;13.35;;;12.60;99.90;;;;;;4982658;28;20255;-91
2021/05/14 08:45:13;;;;;;;18.42;13.25;;;12.70;99.90;;;;;;4983228;28;20208;-95
2021/05/14 08:47:41;;;;;;;15.93;12.48;;;12.70;99.90;;;;;;4982852;28;20176;-93
2021/05/14 08:50:10;;;;;;;16.70;12.60;;;12.80;99.90;;;;;;5001241;28;20263;-93
2021/05/14 08:52:42;;;;;;;17.35;12.20;;;12.90;99.90;;;;;;5003379;28;20258;-94
2021/05/14 08:55:12;;;;;;;19.17;12.07;;;12.90;99.90;;;;;;5002015;28;20218;-93
2021/05/14 08:57:41;;;;;;;15.65;11.48;;;13.00;99.90;;;;;;5002048;28;20184;-92
2021/05/14 09:00:10;;;;;;;16.85;12.35;;;13.00;99.90;;;;;;5003195;28;20180;-91
2021/05/14 09:02:37;;;;;;;17.35;12.98;;;12.90;99.90;;;;;;5002531;28;20214;-93
2021/05/14 09:05:29;;;;;;;17.58;13.30;;;13.00;99.90;;;;;;5004243;28;20196;-95
2021/05/14 09:07:58;;;;;;;15.98;13.10;;;13.00;99.90;;;;;;5002245;28;20180;-93
2021/05/14 09:10:28;;;;;;;17.40;11.95;;;13.10;99.90;;;;;;5001988;28;20232;-92
2021/05/14 09:12:56;;;;;;;12.43;9.27;;;13.20;99.90;;;;;;5002071;28;20203;-92
2021/05/14 09:15:25;;;;;;;16.00;11.23;;;13.30;99.90;;;;;;5000457;28;20219;-92
2021/05/14 09:18:24;;;;;;;12.48;8.80;;;13.30;99.90;;;;;;5002571;28;20231;-94
2021/05/14 09:20:53;;;;;;;15.10;10.82;;;13.40;99.90;;;;;;5005023;28;20202;-93
2021/05/14 09:23:20;;;;;;;15.95;11.90;;;13.40;99.90;;;;;;5004528;28;20656;-94
2021/05/14 09:25:56;;;;;;;13.43;10.77;;;13.50;99.90;;;;;;5005199;28;20633;-94
2021/05/14 09:28:50;;;;;;;15.93;11.13;;;13.60;99.90;;;;;;5007489;28;20179;-92
2021/05/14 09:31:27;;;;;;;18.15;12.05;;;13.60;99.90;;;;;;5005584;28;20186;-92
2021/05/14 09:33:59;;;;;;;18.02;11.98;;;13.60;99.90;;;;;;5005486;28;20545;-94
2021/05/14 09:36:33;;;;;;;16.55;11.93;;;13.70;99.90;;;;;;5004193;28;20180;-92
2021/05/14 09:39:03;;;;;;;18.10;13.15;;;13.70;99.90;;;;;;5005820;28;20183;-93
2021/05/14 09:41:40;;;;;;;17.90;13.65;;;13.80;99.90;;;;;;5005447;28;20180;-91
2021/05/14 09:44:11;;;;;;;20.35;12.63;;;14.00;99.90;;;;;;5003386;28;20207;-92
2021/05/14 09:46:40;;;;;;;16.15;13.15;;;14.10;99.90;;;;;;5006102;28;20164;-92
2021/05/14 09:49:08;;;;;;;22.55;14.43;;;14.10;99.90;;;;;;5005379;28;20223;-92
2021/05/14 09:51:45;;;;;;;20.48;13.98;;;14.20;99.90;;;;;;5004709;28;20164;-95
2021/05/14 09:54:25;;;;;;;18.98;13.98;;;14.30;99.90;;;;;;5002057;28;20639;-94
2021/05/14 09:57:33;;;;;;;17.73;12.60;;;14.40;99.90;;;;;;5002830;28;20176;-92
2021/05/14 10:00:08;;;;;;;17.25;11.98;;;14.20;99.90;;;;;;5002635;28;20215;-94
2021/05/14 10:02:37;;;;;;;19.73;12.95;;;14.30;99.90;;;;;;5000071;28;20205;-94
2021/05/14 10:05:13;;;;;;;21.85;13.57;;;14.30;99.90;;;;;;5001426;28;20192;-93
2021/05/14 10:07:42;;;;;;;17.08;11.88;;;14.40;99.90;;;;;;4999879;28;20164;-92
2021/05/14 10:10:12;;;;;;;20.30;14.15;;;14.40;99.90;;;;;;5000681;28;20268;-96
2021/05/14 10:12:39;;;;;;;19.95;13.13;;;14.50;99.90;;;;;;4981958;28;20197;-95
2021/05/14 10:15:10;;;;;;;17.73;11.68;;;14.50;99.90;;;;;;4980675;28;20176;-93
2021/05/14 10:17:39;;;;;;;16.38;11.05;;;14.40;99.90;;;;;;4981370;28;20181;-91
2021/05/14 10:20:11;;;;;;;16.38;10.02;;;14.50;99.90;;;;;;4980898;28;20180;-93
2021/05/14 10:22:38;;;;;;;17.50;11.48;;;14.50;99.90;;;;;;4989890;28;20212;-94
2021/05/14 10:25:05;;;;;;;17.08;11.93;;;14.60;99.90;;;;;;5001208;28;20200;-93
2021/05/14 10:27:44;;;;;;;15.35;11.18;;;14.60;99.90;;;;;;5002282;28;20168;-94
2021/05/14 10:30:12;;;;;;;14.95;9.98;;;14.60;99.90;;;;;;4999823;28;20178;-93
2021/05/14 10:32:44;;;;;;;15.15;10.40;;;14.60;99.90;;;;;;5000612;28;20200;-94
2021/05/14 10:35:33;;;;;;;17.63;11.05;;;14.60;99.90;;;;;;4998993;28;20310;-95
2021/05/14 10:38:09;;;;;;;19.05;11.15;;;14.70;99.90;;;;;;4999341;28;20271;-93
2021/05/14 10:40:38;;;;;;;20.17;12.43;;;14.70;99.90;;;;;;4998614;28;20266;-94
2021/05/14 10:43:07;;;;;;;19.45;11.27;;;14.80;99.90;;;;;;4988542;28;20196;-95
2021/05/14 10:45:37;;;;;;;14.50;10.20;;;14.90;99.90;;;;;;4988603;28;20250;-93
2021/05/14 10:48:17;;;;;;;16.23;9.57;;;14.90;99.90;;;;;;4986381;28;20254;-93
2021/05/14 10:50:50;;;;;;;15.32;9.77;;;15.00;99.90;;;;;;4997966;28;20207;-95
2021/05/14 10:53:47;;;;;;;18.73;11.07;;;15.10;99.90;;;;;;4997192;28;20204;-93
2021/05/14 10:56:16;;;;;;;14.80;8.52;;;15.30;99.90;;;;;;4997723;28;20230;-92
2021/05/14 10:59:22;;;;;;;14.20;8.18;;;15.50;99.90;;;;;;4998069;28;20216;-93
2021/05/14 11:01:50;;;;;;;11.98;7.57;;;15.60;99.90;;;;;;4996754;28;20188;-93
2021/05/14 11:04:40;;;;;;;13.55;8.15;;;15.70;99.90;;;;;;4997337;28;20204;-93
2021/05/14 11:07:41;;;;;;;11.48;7.20;;;15.80;99.90;;;;;;4997328;28;20203;-92
2021/05/14 11:10:29;;;;;;;12.23;7.53;;;16.20;99.90;;;;;;4998126;28;20202;-94
2021/05/14 11:16:36;;;;;;;10.93;5.88;;;16.40;99.30;;;;;;4999504;28;20156;-93
2021/05/14 11:19:22;;;;;;;14.52;7.72;;;16.20;99.90;;;;;;4998469;28;20636;-93
2021/05/14 11:22:14;;;;;;;12.38;7.10;;;16.30;99.70;;;;;;4998496;28;20175;-94
2021/05/14 11:24:48;;;;;;;11.57;6.95;;;16.20;99.90;;;;;;4998850;28;20195;-94
2021/05/14 11:27:35;;;;;;;8.98;6.35;;;16.10;99.90;;;;;;4998470;28;20172;-93
2021/05/14 11:30:05;;;;;;;8.90;6.13;;;15.90;99.10;;;;;;4998003;28;20219;-93
2021/05/14 11:32:39;;;;;;;9.85;5.80;;;15.80;99.90;;;;;;4997482;28;20195;-93
2021/05/14 11:35:22;;;;;;;9.70;6.55;;;15.70;99.90;;;;;;4998267;28;20651;-93
2021/05/14 11:37:52;;;;;;;10.82;6.55;;;15.60;99.90;;;;;;4996421;28;20176;-92
2021/05/14 11:40:29;;;;;;;8.23;5.63;;;15.60;99.90;;;;;;4996812;28;20172;-93
2021/05/14 11:43:03;;;;;;;9.85;5.82;;;15.60;99.90;;;;;;4997522;28;20203;-93
2021/05/14 11:45:32;;;;;;;7.40;5.32;;;15.60;99.90;;;;;;4997498;28;20199;-92
2021/05/14 11:48:01;;;;;;;9.95;6.20;;;15.70;99.90;;;;;;4998841;28;20179;-92
2021/05/14 11:50:43;;;;;;;9.65;5.97;;;15.70;99.90;;;;;;4995560;28;20228;-94
2021/05/14 11:53:11;;;;;;;11.18;6.68;;;15.80;99.90;;;;;;4994936;28;20212;-92
2021/05/14 11:55:41;;;;;;;12.32;6.75;;;16.10;99.90;;;;;;4995428;28;20184;-94
2021/05/14 11:58:07;;;;;;;11.45;6.10;;;16.20;99.90;;;;;;4995821;28;20183;-92
2021/05/14 12:00:38;;;;;;;9.07;5.75;;;16.40;99.90;;;;;;4993966;28;20180;-93
2021/05/14 12:03:09;;;;;;;11.95;6.03;;;16.50;99.90;;;;;;4995294;28;20234;-94
2021/05/14 12:05:36;;;;;;;10.60;5.00;;;16.60;99.90;;;;;;4997698;28;20188;-90
2021/05/14 12:08:15;;;;;;;9.07;4.63;;;16.70;99.90;;;;;;4999901;28;20214;-92
2021/05/14 12:10:57;;;;;;;8.20;3.55;;;16.70;99.70;;;;;;4998997;28;20168;-92
2021/05/14 12:13:25;;;;;;;4.65;3.63;;;16.60;99.30;;;;;;5000986;28;20203;-93
2021/05/14 12:16:09;;;;;;;5.95;3.58;;;16.60;97.10;;;;;;4990264;28;20168;-95
2021/05/14 12:18:37;;;;;;;7.57;3.38;;;16.50;99.20;;;;;;5000600;28;20183;-95
2021/05/14 12:21:07;;;;;;;7.22;4.10;;;16.60;99.90;;;;;;5000261;28;20222;-93
2021/05/14 12:23:38;;;;;;;5.90;2.95;;;16.80;99.50;;;;;;4999935;28;20207;-92
2021/05/14 12:26:08;;;;;;;6.60;2.95;;;17.10;97.70;;;;;;5001407;28;20238;-92
2021/05/14 12:28:45;;;;;;;7.10;3.33;;;17.20;97.20;;;;;;5001805;28;20198;-92
2021/05/14 12:31:12;;;;;;;5.38;3.30;;;17.30;98.00;;;;;;5002216;28;20250;-93
2021/05/14 12:34:08;;;;;;;7.90;3.58;;;17.40;96.80;;;;;;5001647;28;20227;-92
2021/05/14 12:36:39;;;;;;;7.93;3.67;;;17.50;99.10;;;;;;5003497;28;20211;-94
2021/05/14 12:39:08;;;;;;;6.65;3.55;;;17.50;94.60;;;;;;5002811;28;20180;-94
2021/05/14 12:41:39;;;;;;;6.38;3.60;;;17.60;96.50;;;;;;5000484;28;20175;-92
2021/05/14 12:44:32;;;;;;;9.00;3.28;;;17.70;97.50;;;;;;4999580;28;20207;-92
2021/05/14 12:47:10;;;;;;;5.07;3.20;;;17.70;96.50;;;;;;5002112;28;20164;-92
2021/05/14 12:49:43;;;;;;;8.75;3.28;;;17.50;95.60;;;;;;5001736;28;20228;-92
2021/05/14 12:52:12;;;;;;;5.07;3.70;;;17.40;94.50;;;;;;5002382;28;20218;-91
2021/05/14 12:55:09;;;;;;;6.80;4.32;;;17.30;95.60;;;;;;5002562;28;20180;-92
2021/05/14 12:57:40;;;;;;;6.78;4.65;;;17.20;95.40;;;;;;4999645;28;20206;-95
2021/05/14 13:00:15;;;;;;;7.63;5.53;;;17.30;98.20;;;;;;4999445;28;20631;-92
2021/05/14 13:02:51;;;;;;;8.90;5.95;;;17.50;96.40;;;;;;4994269;28;20207;-95
2021/05/14 13:05:17;;;;;;;7.90;5.88;;;17.60;98.00;;;;;;4979135;28;20235;-93
2021/05/14 13:08:02;;;;;;;10.00;5.60;;;17.60;96.60;;;;;;4978703;28;20539;-93
2021/05/14 13:10:48;;;;;;;9.52;5.68;;;17.60;94.90;;;;;;4979182;28;20288;-93